Time;durP1;ratioP1;P1;durP2;ratioP2;P2;SDS_P1;SDS_P2;PMS_P1;PMS_P2;Temp;Humidity;BMP_temperature;BMP_pressure;BME280_temperature;BME280_humidity;BME280_pressure;Samples;Min_cycle;Max_cycle;Signal;HPM_P1;HPM_P2
2023/07/14 00:01:18;;;;;;;;;;;12.90;99.90;;;;;;5113925;28;19991;-63
2023/07/14 00:03:45;;;;;;;;;;;13.00;99.90;;;;;;5113865;28;20409;-63
2023/07/14 00:06:13;;;;;;;;;;;13.00;99.90;;;;;;5113915;28;19907;-63
2023/07/14 00:08:40;;;;;;;;;;;13.10;99.90;;;;;;5114053;28;19908;-63
2023/07/14 00:11:17;;;;;;;;;;;13.30;99.90;;;;;;5113795;28;20352;-63
2023/07/14 00:13:44;;;;;;;;;;;13.40;99.90;;;;;;5114045;28;19915;-64
2023/07/14 00:16:17;;;;;;;;;;;13.60;99.90;;;;;;5113787;28;19908;-63
2023/07/14 00:18:44;;;;;;;;;;;13.60;99.90;;;;;;5113680;28;19991;-63
2023/07/14 00:21:29;;;;;;;;;;;13.70;99.90;;;;;;5113720;28;19908;-63
2023/07/14 00:24:00;;;;;;;;;;;13.80;99.90;;;;;;5113747;28;20261;-68
2023/07/14 00:26:29;;;;;;;;;;;14.00;99.90;;;;;;5114128;28;19908;-64
2023/07/14 00:28:55;;;;;;;;;;;14.20;99.90;;;;;;5113429;28;20300;-65
2023/07/14 00:31:23;;;;;;;;;;;14.30;99.90;;;;;;5113581;28;19912;-64
2023/07/14 00:33:51;;;;;;;;;;;14.40;99.90;;;;;;5113160;28;19908;-64
2023/07/14 00:36:18;;;;;;;;;;;14.60;99.90;;;;;;5113897;28;20375;-64
2023/07/14 00:38:45;;;;;;;;;;;14.60;99.90;;;;;;5113434;28;19915;-65
2023/07/14 00:41:16;;;;;;;;;;;14.80;99.90;;;;;;5113493;28;20296;-65
2023/07/14 00:43:43;;;;;;;;;;;14.90;99.90;;;;;;5113572;28;19919;-64
2023/07/14 00:46:22;;;;;;;;;;;15.10;99.90;;;;;;5112680;28;21329;-65
2023/07/14 00:48:49;;;;;;;;;;;15.10;99.90;;;;;;5113507;28;19976;-65
2023/07/14 00:51:16;;;;;;;;;;;15.20;99.90;;;;;;5113565;28;19983;-64
2023/07/14 00:53:46;;;;;;;;;;;15.40;99.90;;;;;;5113506;28;19908;-66
2023/07/14 00:56:12;;;;;;;;;;;15.50;99.90;;;;;;5113161;28;19911;-63
2023/07/14 00:58:41;;;;;;;;;;;15.60;99.90;;;;;;5113278;28;19915;-64
2023/07/14 01:01:10;;;;;;;;;;;15.70;99.90;;;;;;5113163;28;19930;-63
2023/07/14 01:03:39;;;;;;;;;;;16.00;99.90;;;;;;5113181;28;20374;-63
2023/07/14 01:06:08;;;;;;;;;;;16.20;99.40;;;;;;5113156;28;19908;-63
2023/07/14 01:08:35;;;;;;;;;;;16.30;99.20;;;;;;5113178;28;20265;-64
2023/07/14 01:11:03;;;;;;;;;;;16.40;98.80;;;;;;5113150;28;19908;-64
2023/07/14 01:13:30;;;;;;;;;;;16.60;98.60;;;;;;5112804;28;20356;-64
2023/07/14 01:15:57;;;;;;;;;;;16.80;98.30;;;;;;5112932;28;19915;-63
2023/07/14 01:18:24;;;;;;;;;;;16.90;97.80;;;;;;5112972;28;19928;-67
2023/07/14 01:20:51;;;;;;;;;;;16.90;97.60;;;;;;5112863;28;19961;-64
2023/07/14 01:23:17;;;;;;;;;;;17.10;97.10;;;;;;5112860;28;19916;-68
2023/07/14 01:25:50;;;;;;;;;;;17.30;96.80;;;;;;5112701;28;20376;-63
2023/07/14 01:28:19;;;;;;;;;;;17.40;96.60;;;;;;5112564;28;19912;-63
2023/07/14 01:30:46;;;;;;;;;;;17.50;96.30;;;;;;5112441;28;20000;-63
2023/07/14 01:33:15;;;;;;;;;;;17.70;96.40;;;;;;5112761;28;20371;-63
2023/07/14 01:35:45;;;;;;;;;;;17.90;96.00;;;;;;5112896;28;20383;-63
2023/07/14 01:38:12;;;;;;;;;;;17.90;95.20;;;;;;5112570;28;20006;-63
2023/07/14 01:40:40;;;;;;;;;;;18.10;94.60;;;;;;5112719;28;20421;-64
2023/07/14 01:43:09;;;;;;;;;;;18.20;94.40;;;;;;5112311;28;20378;-64
2023/07/14 01:45:48;;;;;;;;;;;18.40;93.80;;;;;;5113352;28;19912;-67
2023/07/14 01:48:17;;;;;;;;;;;18.50;94.10;;;;;;5116587;28;19919;-67
2023/07/14 01:50:49;;;;;;;;;;;18.70;93.90;;;;;;5116424;28;19908;-64
2023/07/14 01:53:24;;;;;;;;;;;18.80;92.50;;;;;;5116605;28;19958;-64
2023/07/14 01:55:52;;;;;;;;;;;18.90;91.80;;;;;;5116446;28;19915;-65
2023/07/14 01:58:21;;;;;;;;;;;19.00;91.30;;;;;;5116481;28;19907;-63
2023/07/14 02:00:50;;;;;;;;;;;19.00;90.90;;;;;;5116297;28;19961;-64
2023/07/14 02:03:20;;;;;;;;;;;19.20;91.00;;;;;;5115751;28;20291;-63
2023/07/14 02:05:47;;;;;;;;;;;19.30;90.50;;;;;;5116263;28;19912;-64
2023/07/14 02:08:16;;;;;;;;;;;19.50;90.60;;;;;;5116217;28;19914;-64
2023/07/14 02:10:43;;;;;;;;;;;19.70;90.60;;;;;;5115903;28;19952;-64
2023/07/14 02:13:10;;;;;;;;;;;19.70;90.50;;;;;;5116011;28;19915;-64
2023/07/14 02:15:37;;;;;;;;;;;19.70;90.60;;;;;;5115647;28;19942;-64
2023/07/14 02:18:04;;;;;;;;;;;19.70;90.70;;;;;;5116045;28;19916;-64
2023/07/14 02:20:30;;;;;;;;;;;19.70;90.10;;;;;;5115911;28;20372;-64
2023/07/14 02:22:58;;;;;;;;;;;19.60;90.20;;;;;;5115867;28;19935;-64
2023/07/14 02:25:27;;;;;;;;;;;19.80;90.30;;;;;;5115711;28;19908;-64
2023/07/14 02:27:53;;;;;;;;;;;19.80;90.40;;;;;;5115823;28;19908;-64
2023/07/14 02:30:22;;;;;;;;;;;19.80;89.90;;;;;;5115543;28;20002;-63
2023/07/14 02:32:51;;;;;;;;;;;19.90;89.70;;;;;;5115655;28;19908;-63
2023/07/14 02:35:23;;;;;;;;;;;20.00;89.00;;;;;;5115660;28;19994;-65
2023/07/14 02:38:04;;;;;;;;;;;20.10;89.30;;;;;;5115541;28;19908;-65
2023/07/14 02:40:38;;;;;;;;;;;20.30;88.10;;;;;;5115531;28;19998;-63
2023/07/14 02:43:09;;;;;;;;;;;20.40;86.70;;;;;;5096747;28;19920;-65
2023/07/14 02:45:58;;;;;;;;;;;20.60;85.70;;;;;;5115249;28;19908;-64
2023/07/14 02:48:35;;;;;;;;;;;20.90;85.50;;;;;;5107066;28;20522;-64
2023/07/14 02:51:02;;;;;;;;;;;21.10;85.30;;;;;;5115168;28;20256;-64
2023/07/14 02:53:29;;;;;;;;;;;21.10;84.30;;;;;;5115265;28;19908;-64
2023/07/14 02:55:56;;;;;;;;;;;21.20;85.00;;;;;;5115210;28;19915;-64
2023/07/14 02:58:23;;;;;;;;;;;21.50;83.90;;;;;;5114914;28;19914;-63
2023/07/14 03:00:50;;;;;;;;;;;22.00;82.80;;;;;;5114952;28;20386;-64
2023/07/14 03:03:17;;;;;;;;;;;23.20;79.70;;;;;;5114855;28;19915;-63
2023/07/14 03:05:44;;;;;;;;;;;23.90;78.20;;;;;;5114989;28;20377;-63
2023/07/14 03:08:14;;;;;;;;;;;24.20;77.70;;;;;;5114959;28;19915;-63
2023/07/14 03:10:41;;;;;;;;;;;24.60;76.10;;;;;;5114843;28;19991;-64
2023/07/14 03:13:08;;;;;;;;;;;24.70;74.90;;;;;;5114679;28;19954;-64
2023/07/14 03:15:35;;;;;;;;;;;24.70;74.00;;;;;;5114681;28;19919;-63
2023/07/14 03:18:01;;;;;;;;;;;25.10;74.30;;;;;;5114753;28;19911;-64
2023/07/14 03:20:28;;;;;;;;;;;25.70;72.50;;;;;;5114704;28;19908;-65
2023/07/14 03:22:55;;;;;;;;;;;25.80;70.90;;;;;;5114541;28;19969;-65
2023/07/14 03:25:21;;;;;;;;;;;25.80;72.00;;;;;;5114619;28;19931;-64
2023/07/14 03:27:48;;;;;;;;;;;25.90;71.70;;;;;;5114612;28;20364;-64
2023/07/14 03:30:15;;;;;;;;;;;26.10;71.00;;;;;;5114582;28;19912;-64
2023/07/14 03:32:42;;;;;;;;;;;26.20;70.60;;;;;;5114312;28;19908;-65
2023/07/14 03:35:09;;;;;;;;;;;26.40;70.70;;;;;;5114486;28;19907;-65
2023/07/14 03:37:35;;;;;;;;;;;26.60;69.60;;;;;;5114266;28;19912;-65
2023/07/14 03:40:04;;;;;;;;;;;26.20;68.20;;;;;;5114677;28;20331;-64
2023/07/14 03:42:31;;;;;;;;;;;26.20;69.80;;;;;;5113832;28;19920;-64
2023/07/14 03:44:58;;;;;;;;;;;27.80;67.30;;;;;;5114074;28;19908;-66
2023/07/14 03:47:25;;;;;;;;;;;29.40;64.70;;;;;;5113957;28;19908;-64
2023/07/14 03:49:51;;;;;;;;;;;30.60;63.60;;;;;;5114056;28;19918;-65
2023/07/14 03:52:18;;;;;;;;;;;31.50;61.00;;;;;;5114302;28;19930;-64
2023/07/14 03:54:45;;;;;;;;;;;32.00;58.40;;;;;;5114209;28;20002;-69
2023/07/14 03:57:12;;;;;;;;;;;32.10;57.60;;;;;;5113982;28;19950;-65
2023/07/14 03:59:39;;;;;;;;;;;32.50;58.00;;;;;;5114018;28;20310;-66
2023/07/14 04:02:06;;;;;;;;;;;33.00;56.80;;;;;;5114140;28;19950;-65
2023/07/14 04:04:32;;;;;;;;;;;33.00;54.80;;;;;;5113853;28;19926;-64
2023/07/14 04:06:59;;;;;;;;;;;32.50;54.80;;;;;;5113946;28;19942;-65
2023/07/14 04:09:26;;;;;;;;;;;32.70;54.90;;;;;;5113257;28;19911;-65
2023/07/14 04:11:52;;;;;;;;;;;32.50;54.50;;;;;;5113807;28;19944;-68
2023/07/14 04:14:19;;;;;;;;;;;32.50;54.50;;;;;;5113670;28;20360;-70
2023/07/14 04:16:46;;;;;;;;;;;32.90;53.80;;;;;;5113793;28;19907;-67
2023/07/14 04:19:12;;;;;;;;;;;32.30;54.40;;;;;;5113942;28;19915;-68
2023/07/14 04:21:39;;;;;;;;;;;31.30;54.90;;;;;;5113621;28;19927;-69
2023/07/14 04:24:06;;;;;;;;;;;30.00;56.40;;;;;;5113419;28;19968;-70
2023/07/14 04:26:32;;;;;;;;;;;28.40;58.00;;;;;;5113700;28;19964;-64
2023/07/14 04:28:59;;;;;;;;;;;27.00;60.30;;;;;;5113599;28;19908;-64
2023/07/14 04:31:28;;;;;;;;;;;25.90;61.70;;;;;;5113541;28;19914;-64
2023/07/14 04:33:55;;;;;;;;;;;25.10;63.20;;;;;;5113118;28;19908;-64
2023/07/14 04:36:21;;;;;;;;;;;24.50;63.90;;;;;;5113368;28;19934;-64
2023/07/14 04:39:14;;;;;;;;;;;24.10;65.30;;;;;;5113320;28;19907;-64
2023/07/14 04:41:41;;;;;;;;;;;23.70;65.50;;;;;;5110267;28;19999;-67
2023/07/14 04:44:09;;;;;;;;;;;23.40;66.60;;;;;;5095005;28;19969;-68
2023/07/14 04:46:36;;;;;;;;;;;23.10;67.20;;;;;;5113406;28;19908;-66
2023/07/14 04:49:04;;;;;;;;;;;23.00;67.70;;;;;;5113183;28;19942;-64
2023/07/14 04:51:32;;;;;;;;;;;22.90;68.00;;;;;;5113547;28;19908;-63
2023/07/14 04:53:58;;;;;;;;;;;22.90;68.70;;;;;;5113242;28;19915;-65
2023/07/14 04:56:25;;;;;;;;;;;22.90;68.50;;;;;;5113447;28;19908;-65
2023/07/14 04:58:52;;;;;;;;;;;22.90;68.30;;;;;;5113448;28;19912;-66
2023/07/14 05:01:18;;;;;;;;;;;23.00;69.20;;;;;;5113355;28;20423;-66
2023/07/14 05:03:45;;;;;;;;;;;22.90;68.80;;;;;;5112701;28;19920;-68
2023/07/14 05:06:12;;;;;;;;;;;22.90;68.40;;;;;;5113053;28;20006;-66
2023/07/14 05:08:39;;;;;;;;;;;22.90;68.80;;;;;;5113126;28;19952;-64
2023/07/14 05:11:06;;;;;;;;;;;22.80;68.80;;;;;;5112958;28;19927;-65
2023/07/14 05:13:34;;;;;;;;;;;22.70;68.40;;;;;;5112869;28;20002;-64
2023/07/14 05:16:00;;;;;;;;;;;22.90;69.40;;;;;;5113127;28;19908;-64
2023/07/14 05:18:27;;;;;;;;;;;23.20;68.60;;;;;;5113021;28;20284;-65
2023/07/14 05:20:58;;;;;;;;;;;23.60;68.30;;;;;;5115725;28;19908;-65
2023/07/14 05:23:26;;;;;;;;;;;23.80;67.80;;;;;;5117009;28;20384;-64
2023/07/14 05:25:53;;;;;;;;;;;23.80;67.70;;;;;;5117055;28;19926;-64
2023/07/14 05:28:19;;;;;;;;;;;23.70;69.40;;;;;;5117300;28;20322;-68
2023/07/14 05:30:46;;;;;;;;;;;23.50;68.30;;;;;;5116466;28;19911;-69
2023/07/14 05:33:16;;;;;;;;;;;23.30;68.80;;;;;;5116747;28;20333;-68
2023/07/14 05:35:43;;;;;;;;;;;23.20;69.70;;;;;;5116729;28;20002;-69
2023/07/14 05:38:10;;;;;;;;;;;23.40;70.00;;;;;;5116756;28;20246;-65
2023/07/14 05:40:37;;;;;;;;;;;23.60;69.10;;;;;;5116648;28;19955;-65
2023/07/14 05:43:04;;;;;;;;;;;24.00;69.70;;;;;;5116508;28;20014;-65
2023/07/14 05:45:30;;;;;;;;;;;24.60;68.20;;;;;;5116758;28;19962;-63
2023/07/14 05:47:57;;;;;;;;;;;24.70;66.80;;;;;;5116836;28;19996;-64
2023/07/14 05:50:24;;;;;;;;;;;24.80;65.80;;;;;;5116778;28;19953;-65
2023/07/14 05:52:51;;;;;;;;;;;24.70;65.30;;;;;;5116872;28;20332;-65
2023/07/14 05:55:17;;;;;;;;;;;24.60;64.80;;;;;;5116826;28;19993;-65
2023/07/14 05:57:44;;;;;;;;;;;24.50;65.30;;;;;;5116524;28;19955;-64
2023/07/14 06:00:18;;;;;;;;;;;24.60;64.40;;;;;;5097883;28;19961;-64
2023/07/14 06:02:50;;;;;;;;;;;24.80;64.40;;;;;;5116467;28;20431;-64
2023/07/14 06:05:17;;;;;;;;;;;25.10;63.90;;;;;;5098670;28;20018;-64
2023/07/14 06:07:44;;;;;;;;;;;25.30;64.30;;;;;;5116449;28;19967;-66
2023/07/14 06:10:11;;;;;;;;;;;25.50;63.10;;;;;;5116374;28;19935;-64
2023/07/14 06:12:38;;;;;;;;;;;25.70;63.20;;;;;;5116533;28;20341;-66
2023/07/14 06:15:05;;;;;;;;;;;25.50;63.20;;;;;;5099262;28;19999;-65
2023/07/14 06:17:32;;;;;;;;;;;25.50;63.00;;;;;;5116548;28;19907;-64
2023/07/14 06:19:59;;;;;;;;;;;25.70;63.20;;;;;;5115926;28;19934;-65
2023/07/14 06:22:25;;;;;;;;;;;25.90;62.60;;;;;;5117511;28;20428;-64
2023/07/14 06:24:52;;;;;;;;;;;25.70;62.60;;;;;;5116982;28;19985;-63
2023/07/14 06:27:18;;;;;;;;;;;25.40;63.20;;;;;;5116173;28;19908;-63
2023/07/14 06:29:45;;;;;;;;;;;24.80;64.10;;;;;;5115957;28;20283;-65
2023/07/14 06:32:12;;;;;;;;;;;24.10;65.20;;;;;;5115206;28;20267;-68
2023/07/14 06:34:39;;;;;;;;;;;23.50;65.90;;;;;;5115669;28;20011;-65
2023/07/14 06:37:07;;;;;;;;;;;23.00;67.00;;;;;;5115419;28;20379;-65
2023/07/14 06:39:33;;;;;;;;;;;22.60;67.60;;;;;;5097384;28;20277;-66
2023/07/14 06:42:00;;;;;;;;;;;22.40;68.30;;;;;;5115647;28;19911;-63
2023/07/14 06:44:27;;;;;;;;;;;22.00;69.00;;;;;;5115518;28;20403;-64
2023/07/14 06:46:54;;;;;;;;;;;21.80;69.70;;;;;;5115646;28;19986;-64
2023/07/14 06:49:20;;;;;;;;;;;21.70;70.30;;;;;;5115231;28;20403;-65
2023/07/14 06:51:47;;;;;;;;;;;21.40;70.60;;;;;;5097162;28;19908;-63
2023/07/14 06:54:14;;;;;;;;;;;21.20;71.20;;;;;;5115444;28;19915;-65
2023/07/14 06:56:40;;;;;;;;;;;21.10;71.60;;;;;;5115385;28;19984;-65
2023/07/14 06:59:07;;;;;;;;;;;20.80;72.30;;;;;;5115025;28;19908;-64
2023/07/14 07:01:33;;;;;;;;;;;20.70;73.00;;;;;;5115090;28;19908;-64
2023/07/14 07:04:00;;;;;;;;;;;20.40;73.10;;;;;;5115334;28;20322;-67
2023/07/14 07:06:27;;;;;;;;;;;20.40;73.80;;;;;;5115325;28;19908;-67
2023/07/14 07:08:53;;;;;;;;;;;20.20;74.30;;;;;;5114929;28;19995;-67
2023/07/14 07:11:20;;;;;;;;;;;20.00;75.20;;;;;;5114932;28;19907;-67
2023/07/14 07:13:47;;;;;;;;;;;19.80;75.60;;;;;;5114847;28;19926;-62
2023/07/14 07:16:14;;;;;;;;;;;19.60;77.10;;;;;;5114803;28;20268;-63
2023/07/14 07:18:41;;;;;;;;;;;19.50;78.40;;;;;;5114775;28;20349;-65
2023/07/14 07:21:12;;;;;;;;;;;19.20;79.70;;;;;;5114432;28;19908;-63
2023/07/14 07:23:39;;;;;;;;;;;19.10;80.40;;;;;;5114474;28;19920;-64
2023/07/14 07:26:06;;;;;;;;;;;18.90;80.60;;;;;;5114782;28;20085;-65
2023/07/14 07:28:33;;;;;;;;;;;18.70;81.20;;;;;;5114427;28;19908;-64
2023/07/14 07:31:09;;;;;;;;;;;18.60;82.30;;;;;;5114364;28;20280;-66
2023/07/14 07:33:36;;;;;;;;;;;18.50;82.80;;;;;;5096010;28;19914;-65
2023/07/14 07:36:14;;;;;;;;;;;18.30;83.50;;;;;;5114358;28;19980;-68
2023/07/14 07:38:45;;;;;;;;;;;18.10;83.80;;;;;;5114197;28;19912;-65
2023/07/14 07:41:15;;;;;;;;;;;18.00;84.10;;;;;;5114378;28;19912;-68
2023/07/14 07:43:42;;;;;;;;;;;17.90;84.70;;;;;;5113204;28;19977;-62
2023/07/14 07:46:10;;;;;;;;;;;17.80;84.90;;;;;;5114001;28;19914;-64
2023/07/14 07:48:37;;;;;;;;;;;17.80;84.00;;;;;;5114078;28;19908;-64
2023/07/14 07:51:04;;;;;;;;;;;17.80;84.90;;;;;;5113857;28;19911;-64
2023/07/14 07:53:31;;;;;;;;;;;17.80;85.00;;;;;;5114047;28;19908;-63
2023/07/14 07:55:59;;;;;;;;;;;17.70;84.30;;;;;;5114189;28;19915;-63
2023/07/14 07:58:25;;;;;;;;;;;17.70;85.30;;;;;;5113966;28;19939;-63
2023/07/14 08:00:56;;;;;;;;;;;17.70;84.60;;;;;;5113756;28;20356;-64
2023/07/14 08:03:23;;;;;;;;;;;17.70;84.50;;;;;;5113948;28;19924;-65
2023/07/14 08:05:50;;;;;;;;;;;17.70;84.70;;;;;;5113858;28;19990;-64
2023/07/14 08:08:18;;;;;;;;;;;17.60;84.50;;;;;;5113889;28;19907;-63
2023/07/14 08:10:47;;;;;;;;;;;17.60;84.60;;;;;;5113527;28;20002;-64
2023/07/14 08:13:15;;;;;;;;;;;17.60;85.00;;;;;;5113602;28;19990;-65
2023/07/14 08:15:41;;;;;;;;;;;17.60;84.70;;;;;;5113604;28;19908;-63
2023/07/14 08:18:08;;;;;;;;;;;17.60;85.80;;;;;;5113752;28;19912;-63
2023/07/14 08:20:38;;;;;;;;;;;17.50;86.10;;;;;;5113404;28;19912;-64
2023/07/14 08:23:05;;;;;;;;;;;17.50;85.40;;;;;;5113461;28;19923;-65
2023/07/14 08:25:32;;;;;;;;;;;17.50;86.00;;;;;;5113737;28;19919;-65
2023/07/14 08:27:59;;;;;;;;;;;17.40;86.30;;;;;;5113691;28;19907;-64
2023/07/14 08:30:26;;;;;;;;;;;17.40;87.60;;;;;;5113303;28;19954;-65
2023/07/14 08:32:52;;;;;;;;;;;17.20;88.10;;;;;;5113437;28;19950;-65
2023/07/14 08:35:19;;;;;;;;;;;17.20;89.20;;;;;;5113536;28;19915;-64
2023/07/14 08:37:46;;;;;;;;;;;17.10;88.60;;;;;;5113268;28;19908;-64
2023/07/14 08:40:13;;;;;;;;;;;17.00;88.50;;;;;;5113351;28;20002;-64
2023/07/14 08:42:43;;;;;;;;;;;17.00;88.60;;;;;;5113000;28;19924;-65
2023/07/14 08:45:14;;;;;;;;;;;17.00;88.90;;;;;;5113150;28;19908;-63
2023/07/14 08:47:43;;;;;;;;;;;16.90;89.50;;;;;;5113309;28;19915;-64
2023/07/14 08:50:16;;;;;;;;;;;16.90;89.60;;;;;;5113253;28;19908;-64
2023/07/14 08:52:44;;;;;;;;;;;16.80;90.00;;;;;;5113235;28;19943;-63
2023/07/14 08:55:11;;;;;;;;;;;16.70;89.80;;;;;;5113024;28;19907;-65
2023/07/14 08:57:44;;;;;;;;;;;16.70;89.60;;;;;;5113249;28;19908;-65
2023/07/14 09:00:17;;;;;;;;;;;16.80;89.30;;;;;;5113156;28;19957;-63
2023/07/14 09:03:03;;;;;;;;;;;16.90;89.20;;;;;;5113010;28;19911;-64
2023/07/14 09:05:31;;;;;;;;;;;16.80;89.40;;;;;;5112942;28;19907;-65
2023/07/14 09:07:58;;;;;;;;;;;16.80;90.00;;;;;;5112813;28;20014;-66
2023/07/14 09:10:44;;;;;;;;;;;16.70;90.10;;;;;;5113224;28;19947;-68
2023/07/14 09:13:19;;;;;;;;;;;16.60;90.10;;;;;;5112597;28;20367;-65
2023/07/14 09:15:46;;;;;;;;;;;16.60;90.70;;;;;;5112835;28;19908;-64
2023/07/14 09:18:16;;;;;;;;;;;16.50;90.70;;;;;;5112848;28;19915;-64
2023/07/14 09:20:47;;;;;;;;;;;16.40;91.00;;;;;;5113072;28;19958;-64
2023/07/14 09:23:13;;;;;;;;;;;16.30;91.00;;;;;;5112695;28;20360;-64
2023/07/14 09:25:58;;;;;;;;;;;16.20;91.30;;;;;;5112902;28;19990;-64
2023/07/14 09:28:33;;;;;;;;;;;16.10;91.60;;;;;;5113248;28;19908;-64
2023/07/14 09:31:05;;;;;;;;;;;16.10;91.90;;;;;;5112975;28;20277;-64
2023/07/14 09:33:40;;;;;;;;;;;16.00;92.30;;;;;;5112790;28;20132;-63
2023/07/14 09:36:11;;;;;;;;;;;15.90;92.70;;;;;;5112794;28;19912;-64
2023/07/14 09:38:41;;;;;;;;;;;15.80;93.00;;;;;;5112992;28;19908;-64
2023/07/14 09:41:14;;;;;;;;;;;15.70;93.40;;;;;;5112962;28;20375;-63
2023/07/14 09:43:41;;;;;;;;;;;15.60;93.60;;;;;;5112319;28;19927;-65
2023/07/14 09:46:09;;;;;;;;;;;15.50;94.00;;;;;;5113051;28;20315;-63
2023/07/14 09:48:41;;;;;;;;;;;15.40;94.20;;;;;;5112782;28;19908;-64
2023/07/14 09:51:13;;;;;;;;;;;15.40;94.60;;;;;;5112532;28;19908;-64
2023/07/14 09:53:55;;;;;;;;;;;15.30;94.90;;;;;;5112748;28;20424;-63
2023/07/14 09:56:24;;;;;;;;;;;15.30;95.10;;;;;;5112545;28;19940;-64
2023/07/14 09:58:53;;;;;;;;;;;15.10;95.30;;;;;;5112756;28;19915;-64
2023/07/14 10:01:20;;;;;;;;;;;15.20;95.50;;;;;;5112639;28;19908;-65
2023/07/14 10:03:56;;;;;;;;;;;15.10;95.80;;;;;;5112451;28;19916;-64
2023/07/14 10:06:26;;;;;;;;;;;15.00;95.90;;;;;;5112766;28;20325;-65
2023/07/14 10:08:57;;;;;;;;;;;15.00;96.00;;;;;;5116092;28;19907;-64
2023/07/14 10:11:25;;;;;;;;;;;14.90;96.40;;;;;;5115932;28;19933;-63
2023/07/14 10:14:05;;;;;;;;;;;14.80;96.80;;;;;;5116044;28;19993;-63
2023/07/14 10:16:32;;;;;;;;;;;14.70;97.00;;;;;;5115805;28;20040;-63
2023/07/14 10:19:04;;;;;;;;;;;14.70;97.40;;;;;;5116184;28;20014;-64
2023/07/14 10:21:32;;;;;;;;;;;14.60;97.80;;;;;;5116255;28;20263;-65
2023/07/14 10:24:07;;;;;;;;;;;14.50;98.00;;;;;;5097564;28;20020;-66
2023/07/14 10:26:35;;;;;;;;;;;14.50;98.20;;;;;;5115810;28;19912;-65
2023/07/14 10:29:06;;;;;;;;;;;14.40;98.40;;;;;;5115762;28;20383;-64
2023/07/14 10:31:59;;;;;;;;;;;14.40;98.60;;;;;;5115762;28;19908;-64
2023/07/14 10:34:25;;;;;;;;;;;14.30;98.90;;;;;;5112560;28;20002;-64
2023/07/14 10:36:54;;;;;;;;;;;14.30;99.20;;;;;;5115489;28;19908;-63
2023/07/14 10:39:39;;;;;;;;;;;14.20;99.50;;;;;;5115345;28;19908;-64
2023/07/14 10:42:10;;;;;;;;;;;14.10;99.90;;;;;;5115560;28;19916;-64
2023/07/14 10:44:40;;;;;;;;;;;14.10;99.90;;;;;;5115256;28;19916;-65
2023/07/14 10:47:33;;;;;;;;;;;14.10;99.90;;;;;;5115703;28;20350;-63
2023/07/14 10:50:18;;;;;;;;;;;14.00;99.90;;;;;;5091983;28;20383;-64
2023/07/14 10:52:47;;;;;;;;;;;14.00;99.90;;;;;;5116026;28;19915;-66
2023/07/14 10:55:20;;;;;;;;;;;14.00;99.90;;;;;;5115750;28;19987;-64
2023/07/14 10:57:50;;;;;;;;;;;13.90;99.90;;;;;;5115596;28;19911;-64
2023/07/14 11:00:25;;;;;;;;;;;13.90;99.90;;;;;;5115190;28;20344;-64
2023/07/14 11:03:12;;;;;;;;;;;13.90;99.90;;;;;;5115153;28;19919;-64
2023/07/14 11:05:39;;;;;;;;;;;13.90;99.90;;;;;;5114744;28;20304;-65
2023/07/14 11:08:09;;;;;;;;;;;13.80;99.90;;;;;;5115232;28;19998;-65
2023/07/14 11:10:40;;;;;;;;;;;13.90;99.90;;;;;;5114779;28;20302;-65
2023/07/14 11:13:15;;;;;;;;;;;13.90;99.90;;;;;;5114995;28;19999;-65
2023/07/14 11:15:52;;;;;;;;;;;13.90;99.90;;;;;;5114966;28;19919;-65
2023/07/14 11:18:28;;;;;;;;;;;13.90;99.90;;;;;;5114847;28;20035;-64
2023/07/14 11:21:13;;;;;;;;;;;13.90;99.90;;;;;;5114634;28;19907;-64
2023/07/14 11:23:56;;;;;;;;;;;13.90;99.90;;;;;;5115136;28;19951;-64
2023/07/14 11:26:22;;;;;;;;;;;14.00;99.90;;;;;;5114788;28;19911;-67
2023/07/14 11:29:26;;;;;;;;;;;14.10;99.90;;;;;;5114656;28;19908;-64
2023/07/14 11:31:55;;;;;;;;;;;14.20;99.70;;;;;;5051797;28;19909;-64
2023/07/14 11:34:25;;;;;;;;;;;14.20;99.70;;;;;;5103954;28;20316;-65
2023/07/14 11:36:58;;;;;;;;;;;14.30;99.90;;;;;;5114761;28;19960;-64
2023/07/14 11:39:40;;;;;;;;;;;14.20;99.90;;;;;;5114151;28;19908;-64
2023/07/14 11:42:16;;;;;;;;;;;14.20;99.90;;;;;;5114483;28;19915;-64
2023/07/14 11:44:44;;;;;;;;;;;14.10;99.90;;;;;;5114721;28;19915;-65
2023/07/14 11:47:16;;;;;;;;;;;14.10;99.90;;;;;;5114331;28;19914;-64
2023/07/14 11:49:44;;;;;;;;;;;14.10;99.90;;;;;;5096267;28;19908;-64
2023/07/14 11:52:12;;;;;;;;;;;14.00;99.90;;;;;;5114202;28;19931;-65
2023/07/14 11:54:54;;;;;;;;;;;13.90;99.90;;;;;;5114113;28;20330;-65
2023/07/14 11:57:21;;;;;;;;;;;13.90;99.90;;;;;;5114039;28;20234;-64
2023/07/14 12:00:01;;;;;;;;;;;13.90;99.90;;;;;;5114287;28;19908;-64
2023/07/14 12:02:29;;;;;;;;;;;13.90;99.90;;;;;;5114041;28;19908;-64
2023/07/14 12:05:18;;;;;;;;;;;13.80;99.90;;;;;;5113793;28;19923;-64
2023/07/14 12:07:58;;;;;;;;;;;13.70;99.90;;;;;;5113590;28;19908;-64
2023/07/14 12:10:56;;;;;;;;;;;13.70;99.90;;;;;;5113771;28;20006;-64
2023/07/14 12:13:27;;;;;;;;;;;13.70;99.90;;;;;;5079771;28;19907;-64
2023/07/14 12:15:57;;;;;;;;;;;13.60;99.90;;;;;;5113641;28;19908;-64
2023/07/14 12:18:34;;;;;;;;;;;13.60;99.90;;;;;;5113903;28;19915;-64
2023/07/14 12:21:16;;;;;;;;;;;13.60;99.90;;;;;;5113495;28;19915;-64
2023/07/14 12:23:52;;;;;;;;;;;13.50;99.90;;;;;;5113658;28;19951;-63
2023/07/14 12:26:22;;;;;;;;;;;13.60;99.90;;;;;;5113803;28;19998;-64
2023/07/14 12:28:48;;;;;;;;;;;13.50;99.90;;;;;;5113789;28;20343;-64
2023/07/14 12:31:16;;;;;;;;;;;13.40;99.90;;;;;;5112951;28;20360;-65
2023/07/14 12:33:44;;;;;;;;;;;13.40;99.90;;;;;;5095281;28;20308;-65
2023/07/14 12:36:21;;;;;;;;;;;13.40;99.90;;;;;;5113445;28;19980;-65
2023/07/14 12:38:48;;;;;;;;;;;13.40;99.90;;;;;;5113765;28;19947;-64
2023/07/14 12:41:16;;;;;;;;;;;13.30;99.90;;;;;;5113472;28;19915;-64
2023/07/14 12:43:51;;;;;;;;;;;13.30;99.90;;;;;;5113139;28;19919;-63
2023/07/14 12:46:18;;;;;;;;;;;13.20;99.90;;;;;;5113487;28;19907;-63
2023/07/14 12:48:45;;;;;;;;;;;13.10;99.90;;;;;;5113324;28;19914;-64
2023/07/14 12:51:19;;;;;;;;;;;13.00;99.90;;;;;;5113205;28;19908;-64
2023/07/14 12:54:00;;;;;;;;;;;13.00;99.90;;;;;;5113241;28;19967;-64
2023/07/14 12:56:31;;;;;;;;;;;13.00;99.90;;;;;;5113276;28;19915;-64
2023/07/14 12:59:01;;;;;;;;;;;13.00;99.90;;;;;;5113360;28;19908;-67
2023/07/14 13:01:28;;;;;;;;;;;13.00;99.90;;;;;;5113263;28;19904;-67
2023/07/14 13:03:55;;;;;;;;;;;12.90;99.90;;;;;;5113074;28;19912;-67
2023/07/14 13:06:24;;;;;;;;;;;12.90;99.90;;;;;;5113236;28;19907;-68
2023/07/14 13:08:51;;;;;;;;;;;12.90;99.90;;;;;;5113279;28;19908;-64
2023/07/14 13:11:23;;;;;;;;;;;12.80;99.90;;;;;;5113070;28;19943;-68
2023/07/14 13:13:51;;;;;;;;;;;12.80;99.90;;;;;;5113302;28;19908;-65
2023/07/14 13:16:18;;;;;;;;;;;12.80;99.90;;;;;;5112961;28;19998;-65
2023/07/14 13:19:05;;;;;;;;;;;12.70;99.90;;;;;;5112992;28;19911;-64
2023/07/14 13:21:35;;;;;;;;;;;12.70;99.90;;;;;;5112710;28;19914;-64
2023/07/14 13:24:15;;;;;;;;;;;12.60;99.90;;;;;;5112982;28;19985;-65
2023/07/14 13:26:46;;;;;;;;;;;12.70;99.90;;;;;;5113635;28;20303;-65
2023/07/14 13:29:14;;;;;;;;;;;12.70;99.90;;;;;;5112854;28;19908;-65
2023/07/14 13:31:42;;;;;;;;;;;12.50;99.90;;;;;;5113166;28;20274;-65
2023/07/14 13:34:21;;;;;;;;;;;12.50;99.90;;;;;;5112937;28;19912;-65
2023/07/14 13:36:50;;;;;;;;;;;12.50;99.90;;;;;;5112932;28;20416;-63
2023/07/14 13:39:22;;;;;;;;;;;12.50;99.90;;;;;;5112760;28;19946;-65
2023/07/14 13:41:49;;;;;;;;;;;12.50;99.90;;;;;;5113834;28;19942;-65
2023/07/14 13:44:27;;;;;;;;;;;12.50;99.90;;;;;;5116625;28;19922;-66
2023/07/14 13:46:54;;;;;;;;;;;12.50;99.90;;;;;;5116802;28;19953;-67
2023/07/14 13:49:21;;;;;;;;;;;12.50;99.90;;;;;;5116679;28;19908;-64
2023/07/14 13:51:48;;;;;;;;;;;12.40;99.90;;;;;;5116409;28;19931;-68
2023/07/14 13:54:16;;;;;;;;;;;12.40;99.90;;;;;;5116468;28;19908;-66
2023/07/14 13:56:42;;;;;;;;;;;12.40;99.90;;;;;;5116595;28;19998;-65
2023/07/14 13:59:14;;;;;;;;;;;12.30;99.90;;;;;;5116352;28;19954;-64
2023/07/14 14:01:41;;;;;;;;;;;12.20;99.90;;;;;;5116442;28;20292;-64
2023/07/14 14:04:12;;;;;;;;;;;12.20;99.90;;;;;;5116233;28;19916;-64
2023/07/14 14:06:38;;;;;;;;;;;12.20;99.90;;;;;;5116318;28;20293;-64
2023/07/14 14:09:25;;;;;;;;;;;12.10;99.90;;;;;;5116351;28;19907;-64
2023/07/14 14:11:52;;;;;;;;;;;12.10;99.90;;;;;;5115881;28;20384;-65
2023/07/14 14:14:20;;;;;;;;;;;12.10;99.90;;;;;;5116219;28;19922;-65
2023/07/14 14:16:49;;;;;;;;;;;12.20;99.90;;;;;;5115995;28;20360;-65
2023/07/14 14:19:20;;;;;;;;;;;12.10;99.90;;;;;;5116040;28;19914;-65
2023/07/14 14:21:47;;;;;;;;;;;12.10;99.90;;;;;;5115960;28;20279;-68
2023/07/14 14:24:13;;;;;;;;;;;12.20;99.90;;;;;;5115897;28;19920;-69
2023/07/14 14:26:40;;;;;;;;;;;12.10;99.90;;;;;;5115918;28;19915;-66
2023/07/14 14:29:07;;;;;;;;;;;12.10;99.90;;;;;;5115704;28;20356;-67
2023/07/14 14:31:34;;;;;;;;;;;12.00;99.90;;;;;;5115671;28;19915;-64